createdAt,value
2022-11-04T00:03:37.268Z,99555.25
2022-11-04T00:08:40.078Z,99522.84
2022-11-04T00:13:42.894Z,99563.78
2022-11-04T00:18:45.709Z,99560.53
2022-11-04T00:24:06.804Z,99558.91
2022-11-04T00:29:09.342Z,99569.66
2022-11-04T00:34:11.942Z,99535.69
2022-11-04T00:39:14.685Z,99554.31
2022-11-04T00:44:17.312Z,99548.25
2022-11-04T00:49:20.248Z,99554.81
2022-11-04T00:54:22.997Z,99545.66
2022-11-04T00:59:25.515Z,99544.47
2022-11-04T01:04:28.394Z,99533.13
2022-11-04T01:09:30.980Z,99543.34
2022-11-04T01:14:33.586Z,99545.97
2022-11-04T01:19:36.303Z,99540.19
2022-11-04T01:24:39.026Z,99542.91
2022-11-04T01:29:41.767Z,99545.31
2022-11-04T01:34:44.317Z,99546.31
2022-11-04T01:39:46.899Z,99536.66
2022-11-04T01:44:53.415Z,99527.28
2022-11-04T01:50:13.254Z,99552.19
2022-11-04T01:55:25.998Z,99539.06
2022-11-04T02:00:28.907Z,99565.13
2022-11-04T02:05:32.800Z,99562.59
2022-11-04T02:10:35.934Z,99522.91
2022-11-04T02:16:06.467Z,99553.41
2022-11-04T02:21:11.937Z,99551.97
2022-11-04T02:26:47.916Z,99555.47
2022-11-04T02:32:08.854Z,99540.56
2022-11-04T02:37:40.043Z,99518.00
2022-11-04T02:43:14.968Z,99550.38
2022-11-04T02:48:31.418Z,99559.72
2022-11-04T02:53:58.089Z,99543.91
2022-11-04T02:59:10.002Z,99544.59
2022-11-04T03:04:15.350Z,99540.91
2022-11-04T03:09:19.734Z,99541.97
2022-11-04T03:14:35.047Z,99542.56
2022-11-04T03:19:47.788Z,99546.66
2022-11-04T03:24:51.539Z,99529.16
2022-11-04T03:29:56.903Z,99539.66
2022-11-04T03:34:59.855Z,99537.09
2022-11-04T03:40:03.300Z,99541.84
2022-11-04T03:45:06.566Z,99520.06
2022-11-04T03:50:26.383Z,99547.88
2022-11-04T03:55:37.646Z,99561.53
2022-11-04T04:00:50.352Z,99549.19
2022-11-04T04:06:16.897Z,99550.69
2022-11-04T04:11:39.558Z,99555.13
2022-11-04T04:16:45.950Z,99541.25
2022-11-04T04:21:55.598Z,99551.03
2022-11-04T04:27:17.632Z,99550.72
2022-11-04T04:32:22.589Z,99555.19
2022-11-04T04:37:27.633Z,99562.09
2022-11-04T04:42:53.095Z,99558.53
2022-11-04T04:47:56.558Z,99566.28
2022-11-04T04:53:00.486Z,99558.06
2022-11-04T04:58:03.174Z,99571.50
2022-11-04T05:03:06.102Z,99572.56
2022-11-04T05:08:09.499Z,99566.31
2022-11-04T05:13:30.099Z,99573.00
2022-11-04T05:18:32.804Z,99574.50
2022-11-04T05:23:35.703Z,99571.34
2022-11-04T05:28:38.977Z,99569.56
2022-11-04T05:33:41.598Z,99572.94
2022-11-04T05:38:44.612Z,99573.66
2022-11-04T05:43:47.251Z,99578.34
2022-11-04T05:48:50.219Z,99581.69
2022-11-04T05:53:53.438Z,99584.81
2022-11-04T05:58:56.119Z,99578.41
2022-11-04T06:03:59.799Z,99584.16
2022-11-04T06:09:03.983Z,99583.78
2022-11-04T06:14:06.839Z,99587.44
2022-11-04T06:19:13.398Z,99591.56
2022-11-04T06:24:17.653Z,99588.16
2022-11-04T06:29:20.593Z,99595.25
2022-11-04T06:34:23.219Z,99591.03
2022-11-04T06:39:26.209Z,99594.78
2022-11-04T06:44:34.533Z,99598.50
2022-11-04T06:49:37.152Z,99601.06
2022-11-04T06:54:39.948Z,99608.06
2022-11-04T06:59:42.828Z,99613.88
2022-11-04T07:04:47.367Z,99611.75
2022-11-04T07:09:50.819Z,99585.69
2022-11-04T07:14:59.128Z,99614.94
2022-11-04T07:20:09.429Z,99610.50
2022-11-04T07:25:15.022Z,99600.88
2022-11-04T07:30:20.374Z,99625.13
2022-11-04T07:35:23.019Z,99612.31
2022-11-04T07:40:25.877Z,99610.13
2022-11-04T07:45:28.701Z,99591.94
2022-11-04T07:50:31.645Z,99612.13
2022-11-04T07:55:42.855Z,99615.03
2022-11-04T08:00:46.333Z,99626.28
2022-11-04T08:05:58.708Z,99629.66
2022-11-04T08:11:05.132Z,99635.16
2022-11-04T08:16:13.838Z,99622.25
2022-11-04T08:21:17.110Z,99619.69
2022-11-04T08:26:21.086Z,99614.59
2022-11-04T08:31:28.758Z,99613.47
2022-11-04T08:36:37.840Z,99610.09
2022-11-04T08:41:45.615Z,99609.91
2022-11-04T08:46:48.558Z,99610.91
2022-11-04T08:51:56.895Z,99615.19
2022-11-04T08:56:59.512Z,99613.38
2022-11-04T09:02:02.193Z,99583.81
2022-11-04T09:07:08.319Z,99611.03
2022-11-04T09:12:11.649Z,99612.16
2022-11-04T09:17:14.284Z,99609.63
2022-11-04T09:22:17.939Z,99607.81
2022-11-04T09:27:21.069Z,99607.81
2022-11-04T09:32:24.249Z,99604.38
2022-11-04T09:37:26.807Z,99606.81
2022-11-04T09:42:32.091Z,99613.00
2022-11-04T09:47:36.728Z,99605.41
2022-11-04T09:52:44.745Z,99591.13
2022-11-04T09:57:56.432Z,99572.00
2022-11-04T10:03:19.332Z,99595.41
2022-11-04T10:08:38.168Z,99604.75
2022-11-04T10:13:53.035Z,99604.75
2022-11-04T10:18:58.664Z,99600.19
2022-11-04T10:24:18.782Z,99592.69
2022-11-04T10:29:35.546Z,99595.72
2022-11-04T10:34:55.223Z,99598.41
2022-11-04T10:40:17.532Z,99602.50
2022-11-04T10:45:27.130Z,99565.75
2022-11-04T10:50:56.763Z,99593.38
2022-11-04T10:56:03.253Z,99606.69
2022-11-04T11:01:35.613Z,99607.81
2022-11-04T11:06:38.647Z,99611.88
2022-11-04T11:11:47.568Z,99610.53
2022-11-04T11:16:50.259Z,99602.03
2022-11-04T11:21:57.396Z,99599.75
2022-11-04T11:27:15.267Z,99604.16
2022-11-04T11:32:35.967Z,99611.69
2022-11-04T11:37:40.751Z,99613.25
2022-11-04T11:42:44.297Z,99615.47
2022-11-04T11:47:47.902Z,99619.78
2022-11-04T11:52:52.876Z,99625.81
2022-11-04T12:09:19.575Z,99636.81
2022-11-04T12:14:36.555Z,99635.84
2022-11-04T12:20:08.827Z,99646.72
2022-11-04T12:25:14.341Z,99644.22
2022-11-04T12:30:29.042Z,99644.63
2022-11-04T12:36:04.966Z,99644.88
2022-11-04T12:47:29.211Z,99648.59
2022-11-04T12:52:31.991Z,99652.53
2022-11-04T12:58:16.384Z,99648.34
2022-11-04T13:03:48.674Z,99647.13
2022-11-04T13:09:42.362Z,99656.16
2022-11-04T13:14:55.349Z,99639.81
2022-11-04T13:20:14.303Z,99659.38
2022-11-04T13:25:30.444Z,99652.44
2022-11-04T13:30:45.672Z,99662.81
2022-11-04T13:35:54.332Z,99664.91
2022-11-04T13:41:28.698Z,99663.03
2022-11-04T13:46:34.552Z,99675.84
2022-11-04T13:51:48.193Z,99680.19
2022-11-04T13:56:51.127Z,99687.91
2022-11-04T14:02:12.350Z,99687.09
2022-11-04T14:07:18.171Z,99686.44
2022-11-04T14:12:32.727Z,99682.13
2022-11-04T14:17:35.367Z,99689.03
2022-11-04T14:22:43.935Z,99691.34
2022-11-04T14:28:09.691Z,99690.38
2022-11-04T14:33:31.583Z,99693.97
2022-11-04T14:38:34.584Z,99697.34
2022-11-04T14:43:40.187Z,99697.41
2022-11-04T14:48:52.013Z,99680.06
2022-11-04T14:54:04.367Z,99706.47
2022-11-04T14:59:08.364Z,99712.31
2022-11-04T15:04:31.040Z,99715.75
2022-11-04T15:09:39.738Z,99717.69
2022-11-04T15:14:42.258Z,99717.13
2022-11-04T15:19:50.505Z,99720.03
2022-11-04T15:24:53.699Z,99724.41
2022-11-04T15:30:01.207Z,99724.53
2022-11-04T15:35:05.923Z,99735.13
2022-11-04T15:40:14.641Z,99730.38
2022-11-04T15:45:49.150Z,99739.09
2022-11-04T15:51:06.090Z,99735.13
2022-11-04T15:56:08.703Z,99748.81
2022-11-04T16:01:18.379Z,99759.47
2022-11-04T16:06:43.001Z,99757.34
2022-11-04T16:12:15.315Z,99745.69
2022-11-04T16:17:18.946Z,99760.44
2022-11-04T16:22:40.951Z,99749.41
2022-11-04T16:27:46.294Z,99767.22
2022-11-04T16:32:56.856Z,99745.16
2022-11-04T16:38:01.471Z,99744.66
2022-11-04T16:43:04.146Z,99780.25
2022-11-04T16:48:06.908Z,99774.91
2022-11-04T16:53:10.182Z,99793.72
2022-11-04T16:58:19.411Z,99792.13
2022-11-04T17:03:22.107Z,99781.44
2022-11-04T17:08:26.180Z,99791.25
2022-11-04T17:13:32.114Z,99795.19
2022-11-04T17:18:38.973Z,99772.19
2022-11-04T17:23:41.891Z,99801.56
2022-11-04T17:28:44.874Z,99792.19
2022-11-04T17:33:47.689Z,99808.81
2022-11-04T17:38:50.363Z,99803.28
2022-11-04T17:44:01.829Z,99805.34
2022-11-04T17:49:10.793Z,99739.56
2022-11-04T17:54:14.209Z,99809.69
2022-11-04T17:59:17.834Z,99811.34
2022-11-04T18:04:22.575Z,99795.16
2022-11-04T18:09:25.351Z,99811.22
2022-11-04T18:14:30.555Z,99775.06
2022-11-04T18:19:33.378Z,99800.50
2022-11-04T18:24:36.105Z,99823.38
2022-11-04T18:29:39.195Z,99825.41
2022-11-04T18:34:41.963Z,99831.50
2022-11-04T18:39:45.101Z,99828.69
2022-11-04T18:44:47.823Z,99823.59
2022-11-04T18:49:50.460Z,99832.91
2022-11-04T18:54:53.285Z,99812.91
2022-11-04T18:59:56.394Z,99844.78
2022-11-04T19:04:59.315Z,99855.88
2022-11-04T19:10:02.053Z,99854.78
2022-11-04T19:15:06.285Z,99848.91
2022-11-04T19:20:12.456Z,99828.34
2022-11-04T19:25:15.565Z,99846.41
2022-11-04T19:30:19.416Z,99854.00
2022-11-04T19:35:22.324Z,99842.94
2022-11-04T19:40:25.009Z,99865.31
2022-11-04T19:45:27.650Z,99860.47
2022-11-04T19:50:30.361Z,99881.31
2022-11-04T19:55:33.146Z,99865.00
2022-11-04T20:00:36.260Z,99869.19
2022-11-04T20:05:40.986Z,99880.84
2022-11-04T20:10:43.991Z,99888.38
2022-11-04T20:15:46.630Z,99889.38
2022-11-04T20:20:49.328Z,99897.44
2022-11-04T20:25:52.736Z,99889.13
2022-11-04T20:30:55.590Z,99896.25
2022-11-04T20:35:58.136Z,99900.06
2022-11-04T20:41:09.575Z,99899.56
2022-11-04T20:46:15.588Z,99900.09
2022-11-04T20:51:21.799Z,99913.69
2022-11-04T20:56:25.539Z,99906.03
2022-11-04T21:01:31.501Z,99903.88
2022-11-04T21:06:37.774Z,99916.16
2022-11-04T21:11:40.851Z,99923.75
2022-11-04T21:16:44.165Z,99919.13
2022-11-04T21:21:47.184Z,99919.88
2022-11-04T21:26:50.453Z,99936.78
2022-11-04T21:31:53.686Z,99915.66
2022-11-04T21:36:56.256Z,99940.47
2022-11-04T21:41:59.346Z,99946.81
2022-11-04T21:47:01.988Z,99937.84
2022-11-04T21:52:05.837Z,99946.03
2022-11-04T21:57:08.385Z,99955.66
2022-11-04T22:02:11.570Z,99935.41
2022-11-04T22:07:14.233Z,99961.50
2022-11-04T22:12:16.902Z,99958.03
2022-11-04T22:17:19.633Z,99961.06
2022-11-04T22:22:22.198Z,99955.06
2022-11-04T22:27:24.734Z,99958.91
2022-11-04T22:32:28.996Z,99961.41
2022-11-04T22:37:31.553Z,99970.66
2022-11-04T22:42:34.158Z,99968.56
2022-11-04T22:47:36.823Z,99978.78
2022-11-04T22:52:39.432Z,99981.38
2022-11-04T22:57:42.054Z,99969.22
2022-11-04T23:02:46.181Z,99973.72
2022-11-04T23:07:48.814Z,99986.34
2022-11-04T23:13:10.058Z,99989.47
2022-11-04T23:18:31.704Z,99990.06
2022-11-04T23:23:52.656Z,99999.22
2022-11-04T23:29:13.907Z,100007.69
2022-11-04T23:34:35.297Z,100004.66
2022-11-04T23:39:38.919Z,100009.31
2022-11-04T23:45:01.450Z,100013.47
2022-11-04T23:50:23.319Z,100013.97
2022-11-04T23:55:44.622Z,100022.34
